sensor_id;sensor_type;location;lat;lon;timestamp;temperature;humidity
20998;DHT22;10657;51.276;6.390;2022-10-13T00:00:48;11.10;99.90
20998;DHT22;10657;51.276;6.390;2022-10-13T00:03:15;11.20;99.90
20998;DHT22;10657;51.276;6.390;2022-10-13T00:05:45;11.20;99.90
20998;DHT22;10657;51.276;6.390;2022-10-13T00:08:13;11.20;99.90
20998;DHT22;10657;51.276;6.390;2022-10-13T00:10:41;11.30;99.90
20998;DHT22;10657;51.276;6.390;2022-10-13T00:13:08;11.30;99.90
20998;DHT22;10657;51.276;6.390;2022-10-13T00:15:39;11.20;99.90
20998;DHT22;10657;51.276;6.390;2022-10-13T00:18:07;11.20;99.90
20998;DHT22;10657;51.276;6.390;2022-10-13T00:20:34;11.10;99.90
20998;DHT22;10657;51.276;6.390;2022-10-13T00:23:01;11.20;99.90
20998;DHT22;10657;51.276;6.390;2022-10-13T00:25:28;11.10;99.90
20998;DHT22;10657;51.276;6.390;2022-10-13T00:27:54;11.20;99.90
20998;DHT22;10657;51.276;6.390;2022-10-13T00:30:21;11.30;99.90
20998;DHT22;10657;51.276;6.390;2022-10-13T00:32:48;11.20;99.90
20998;DHT22;10657;51.276;6.390;2022-10-13T00:35:14;11.10;99.90
20998;DHT22;10657;51.276;6.390;2022-10-13T00:37:41;11.10;99.90
20998;DHT22;10657;51.276;6.390;2022-10-13T00:40:08;11.20;99.90
20998;DHT22;10657;51.276;6.390;2022-10-13T00:42:35;11.30;99.90
20998;DHT22;10657;51.276;6.390;2022-10-13T00:47:35;11.40;99.90
20998;DHT22;10657;51.276;6.390;2022-10-13T00:50:03;11.30;99.90
20998;DHT22;10657;51.276;6.390;2022-10-13T00:52:31;11.30;99.90
20998;DHT22;10657;51.276;6.390;2022-10-13T00:54:59;11.40;99.90
20998;DHT22;10657;51.276;6.390;2022-10-13T00:57:27;11.30;99.90
20998;DHT22;10657;51.276;6.390;2022-10-13T00:59:53;11.30;99.90
20998;DHT22;10657;51.276;6.390;2022-10-13T01:02:21;11.40;99.90
20998;DHT22;10657;51.276;6.390;2022-10-13T01:04:50;11.40;99.90
20998;DHT22;10657;51.276;6.390;2022-10-13T01:07:18;11.40;99.90
20998;DHT22;10657;51.276;6.390;2022-10-13T01:09:44;11.40;99.90
20998;DHT22;10657;51.276;6.390;2022-10-13T01:12:15;11.40;99.90
20998;DHT22;10657;51.276;6.390;2022-10-13T01:17:27;11.50;99.90
20998;DHT22;10657;51.276;6.390;2022-10-13T01:26:01;11.50;99.90
20998;DHT22;10657;51.276;6.390;2022-10-13T01:31:18;11.60;99.90
20998;DHT22;10657;51.276;6.390;2022-10-13T01:33:54;11.70;99.90
20998;DHT22;10657;51.276;6.390;2022-10-13T01:36:32;11.70;99.90
20998;DHT22;10657;51.276;6.390;2022-10-13T01:39:07;11.70;99.90
20998;DHT22;10657;51.276;6.390;2022-10-13T01:41:40;11.70;99.90
20998;DHT22;10657;51.276;6.390;2022-10-13T01:46:38;11.70;99.90
20998;DHT22;10657;51.276;6.390;2022-10-13T01:49:10;11.60;99.90
20998;DHT22;10657;51.276;6.390;2022-10-13T01:51:38;11.70;99.90
20998;DHT22;10657;51.276;6.390;2022-10-13T01:54:05;11.70;99.90
20998;DHT22;10657;51.276;6.390;2022-10-13T01:56:31;11.60;99.90
20998;DHT22;10657;51.276;6.390;2022-10-13T01:59:02;11.60;99.90
20998;DHT22;10657;51.276;6.390;2022-10-13T02:02:01;11.60;99.90
20998;DHT22;10657;51.276;6.390;2022-10-13T02:04:47;11.70;99.90
20998;DHT22;10657;51.276;6.390;2022-10-13T02:07:44;11.60;99.90
20998;DHT22;10657;51.276;6.390;2022-10-13T02:10:29;11.60;99.90
20998;DHT22;10657;51.276;6.390;2022-10-13T02:13:01;11.60;99.90
20998;DHT22;10657;51.276;6.390;2022-10-13T02:15:55;11.60;99.90
20998;DHT22;10657;51.276;6.390;2022-10-13T02:18:34;11.60;99.90
20998;DHT22;10657;51.276;6.390;2022-10-13T02:21:02;11.50;99.90
20998;DHT22;10657;51.276;6.390;2022-10-13T02:23:29;11.50;99.90
20998;DHT22;10657;51.276;6.390;2022-10-13T02:25:58;11.50;99.90
20998;DHT22;10657;51.276;6.390;2022-10-13T02:28:26;11.50;99.90
20998;DHT22;10657;51.276;6.390;2022-10-13T02:30:53;11.50;99.90
20998;DHT22;10657;51.276;6.390;2022-10-13T02:33:19;11.50;99.90
20998;DHT22;10657;51.276;6.390;2022-10-13T02:35:46;11.60;99.90
20998;DHT22;10657;51.276;6.390;2022-10-13T02:38:12;11.60;99.90
20998;DHT22;10657;51.276;6.390;2022-10-13T02:40:39;11.60;99.90
20998;DHT22;10657;51.276;6.390;2022-10-13T02:43:06;11.60;99.90
20998;DHT22;10657;51.276;6.390;2022-10-13T02:45:32;11.60;99.90
20998;DHT22;10657;51.276;6.390;2022-10-13T02:47:59;11.60;99.90
20998;DHT22;10657;51.276;6.390;2022-10-13T02:50:26;11.60;99.90
20998;DHT22;10657;51.276;6.390;2022-10-13T02:52:53;11.60;99.90
20998;DHT22;10657;51.276;6.390;2022-10-13T02:55:19;11.60;99.90
20998;DHT22;10657;51.276;6.390;2022-10-13T02:57:46;11.70;99.90
20998;DHT22;10657;51.276;6.390;2022-10-13T03:00:13;11.50;99.90
20998;DHT22;10657;51.276;6.390;2022-10-13T03:02:40;11.60;99.90
20998;DHT22;10657;51.276;6.390;2022-10-13T03:05:08;11.60;99.90
20998;DHT22;10657;51.276;6.390;2022-10-13T03:07:36;11.60;99.90
20998;DHT22;10657;51.276;6.390;2022-10-13T03:10:03;11.60;99.90
20998;DHT22;10657;51.276;6.390;2022-10-13T03:12:30;11.60;99.90
20998;DHT22;10657;51.276;6.390;2022-10-13T03:14:57;11.60;99.90
20998;DHT22;10657;51.276;6.390;2022-10-13T03:17:23;11.60;99.90
20998;DHT22;10657;51.276;6.390;2022-10-13T03:19:50;11.60;99.90
20998;DHT22;10657;51.276;6.390;2022-10-13T03:22:17;11.60;99.90
20998;DHT22;10657;51.276;6.390;2022-10-13T03:24:44;11.60;99.90
20998;DHT22;10657;51.276;6.390;2022-10-13T03:27:11;11.60;99.90
20998;DHT22;10657;51.276;6.390;2022-10-13T03:29:38;11.50;99.90
20998;DHT22;10657;51.276;6.390;2022-10-13T03:32:04;11.40;99.90
20998;DHT22;10657;51.276;6.390;2022-10-13T03:34:31;11.50;99.90
20998;DHT22;10657;51.276;6.390;2022-10-13T03:36:58;11.40;99.90
20998;DHT22;10657;51.276;6.390;2022-10-13T03:39:24;11.30;99.90
20998;DHT22;10657;51.276;6.390;2022-10-13T03:41:51;11.30;99.90
20998;DHT22;10657;51.276;6.390;2022-10-13T03:44:18;11.20;99.90
20998;DHT22;10657;51.276;6.390;2022-10-13T03:46:45;11.20;99.90
20998;DHT22;10657;51.276;6.390;2022-10-13T03:49:11;11.20;99.90
20998;DHT22;10657;51.276;6.390;2022-10-13T03:51:38;11.20;99.90
20998;DHT22;10657;51.276;6.390;2022-10-13T03:54:05;11.20;99.90
20998;DHT22;10657;51.276;6.390;2022-10-13T03:56:32;11.20;99.90
20998;DHT22;10657;51.276;6.390;2022-10-13T03:58:59;11.20;99.90
20998;DHT22;10657;51.276;6.390;2022-10-13T04:01:28;11.10;99.90
20998;DHT22;10657;51.276;6.390;2022-10-13T04:03:56;11.20;99.90
20998;DHT22;10657;51.276;6.390;2022-10-13T04:06:24;11.30;99.90
20998;DHT22;10657;51.276;6.390;2022-10-13T04:08:51;11.30;99.90
20998;DHT22;10657;51.276;6.390;2022-10-13T04:11:18;11.30;99.90
20998;DHT22;10657;51.276;6.390;2022-10-13T04:13:45;11.40;99.90
20998;DHT22;10657;51.276;6.390;2022-10-13T04:16:19;11.40;99.90
20998;DHT22;10657;51.276;6.390;2022-10-13T04:18:52;11.50;99.90
20998;DHT22;10657;51.276;6.390;2022-10-13T04:21:19;11.60;99.90
20998;DHT22;10657;51.276;6.390;2022-10-13T04:23:46;11.60;99.90
20998;DHT22;10657;51.276;6.390;2022-10-13T04:26:21;11.60;99.90
20998;DHT22;10657;51.276;6.390;2022-10-13T04:28:50;11.60;99.90
20998;DHT22;10657;51.276;6.390;2022-10-13T04:31:18;11.50;99.90
20998;DHT22;10657;51.276;6.390;2022-10-13T04:33:44;11.50;99.90
20998;DHT22;10657;51.276;6.390;2022-10-13T04:36:12;11.60;99.90
20998;DHT22;10657;51.276;6.390;2022-10-13T04:38:40;11.60;99.90
20998;DHT22;10657;51.276;6.390;2022-10-13T04:41:08;11.60;99.90
20998;DHT22;10657;51.276;6.390;2022-10-13T04:43:35;11.60;99.90
20998;DHT22;10657;51.276;6.390;2022-10-13T04:46:08;11.70;99.90
20998;DHT22;10657;51.276;6.390;2022-10-13T04:48:35;11.70;99.90
20998;DHT22;10657;51.276;6.390;2022-10-13T04:51:07;11.70;99.90
20998;DHT22;10657;51.276;6.390;2022-10-13T04:53:35;11.60;99.90
20998;DHT22;10657;51.276;6.390;2022-10-13T04:56:05;11.70;99.90
20998;DHT22;10657;51.276;6.390;2022-10-13T04:58:34;11.70;99.90
20998;DHT22;10657;51.276;6.390;2022-10-13T05:01:03;11.70;99.90
20998;DHT22;10657;51.276;6.390;2022-10-13T05:03:31;11.70;99.90
20998;DHT22;10657;51.276;6.390;2022-10-13T05:05:57;11.70;99.90
20998;DHT22;10657;51.276;6.390;2022-10-13T05:08:24;11.70;99.90
20998;DHT22;10657;51.276;6.390;2022-10-13T05:10:56;11.80;99.90
20998;DHT22;10657;51.276;6.390;2022-10-13T05:13:23;11.70;99.90
20998;DHT22;10657;51.276;6.390;2022-10-13T05:15:51;11.70;99.90
20998;DHT22;10657;51.276;6.390;2022-10-13T05:18:17;11.70;99.90
20998;DHT22;10657;51.276;6.390;2022-10-13T05:20:44;11.70;99.90
20998;DHT22;10657;51.276;6.390;2022-10-13T05:23:13;11.70;99.90
20998;DHT22;10657;51.276;6.390;2022-10-13T05:25:39;11.70;99.90
20998;DHT22;10657;51.276;6.390;2022-10-13T05:28:07;11.70;99.90
20998;DHT22;10657;51.276;6.390;2022-10-13T05:30:34;11.70;99.90
20998;DHT22;10657;51.276;6.390;2022-10-13T05:33:01;11.70;99.90
20998;DHT22;10657;51.276;6.390;2022-10-13T05:35:27;11.70;99.90
20998;DHT22;10657;51.276;6.390;2022-10-13T05:37:54;11.70;99.90
20998;DHT22;10657;51.276;6.390;2022-10-13T05:40:21;11.70;99.90
20998;DHT22;10657;51.276;6.390;2022-10-13T05:42:48;11.70;99.90
20998;DHT22;10657;51.276;6.390;2022-10-13T05:45:17;11.70;99.90
20998;DHT22;10657;51.276;6.390;2022-10-13T05:47:45;11.80;99.90
20998;DHT22;10657;51.276;6.390;2022-10-13T05:50:11;11.70;99.90
20998;DHT22;10657;51.276;6.390;2022-10-13T05:52:38;11.70;99.90
20998;DHT22;10657;51.276;6.390;2022-10-13T05:55:07;11.70;99.90
20998;DHT22;10657;51.276;6.390;2022-10-13T05:58:01;11.70;99.90
20998;DHT22;10657;51.276;6.390;2022-10-13T06:00:28;11.70;99.90
20998;DHT22;10657;51.276;6.390;2022-10-13T06:03:06;11.70;99.90
20998;DHT22;10657;51.276;6.390;2022-10-13T06:05:35;11.80;99.90
20998;DHT22;10657;51.276;6.390;2022-10-13T06:08:02;11.80;99.90
20998;DHT22;10657;51.276;6.390;2022-10-13T06:10:29;11.80;99.90
20998;DHT22;10657;51.276;6.390;2022-10-13T06:12:56;11.80;99.90
20998;DHT22;10657;51.276;6.390;2022-10-13T06:15:22;11.90;99.90
20998;DHT22;10657;51.276;6.390;2022-10-13T06:17:53;11.90;99.90
20998;DHT22;10657;51.276;6.390;2022-10-13T06:20:20;11.90;99.90
20998;DHT22;10657;51.276;6.390;2022-10-13T06:22:47;11.90;99.90
20998;DHT22;10657;51.276;6.390;2022-10-13T06:25:15;12.00;99.90
20998;DHT22;10657;51.276;6.390;2022-10-13T06:27:42;12.00;99.90
20998;DHT22;10657;51.276;6.390;2022-10-13T06:30:09;12.00;99.90
20998;DHT22;10657;51.276;6.390;2022-10-13T06:32:36;12.10;99.90
20998;DHT22;10657;51.276;6.390;2022-10-13T06:35:03;12.10;99.90
20998;DHT22;10657;51.276;6.390;2022-10-13T06:37:29;12.10;99.90
20998;DHT22;10657;51.276;6.390;2022-10-13T06:39:56;12.10;99.90
20998;DHT22;10657;51.276;6.390;2022-10-13T06:42:23;12.10;99.90
20998;DHT22;10657;51.276;6.390;2022-10-13T06:44:49;12.10;99.90
20998;DHT22;10657;51.276;6.390;2022-10-13T06:47:16;12.10;99.90
20998;DHT22;10657;51.276;6.390;2022-10-13T06:49:43;12.20;99.90
20998;DHT22;10657;51.276;6.390;2022-10-13T06:52:09;12.20;99.90
20998;DHT22;10657;51.276;6.390;2022-10-13T06:54:36;12.20;99.90
20998;DHT22;10657;51.276;6.390;2022-10-13T06:57:05;12.30;99.90
20998;DHT22;10657;51.276;6.390;2022-10-13T06:59:31;12.30;99.90
20998;DHT22;10657;51.276;6.390;2022-10-13T07:01:58;12.30;99.90
20998;DHT22;10657;51.276;6.390;2022-10-13T07:04:25;12.30;99.90
20998;DHT22;10657;51.276;6.390;2022-10-13T07:06:53;12.40;99.90
20998;DHT22;10657;51.276;6.390;2022-10-13T07:09:19;12.40;99.90
20998;DHT22;10657;51.276;6.390;2022-10-13T07:11:46;12.40;99.90
20998;DHT22;10657;51.276;6.390;2022-10-13T07:14:13;12.50;99.90
20998;DHT22;10657;51.276;6.390;2022-10-13T07:16:40;12.50;99.90
20998;DHT22;10657;51.276;6.390;2022-10-13T07:19:07;12.50;99.90
20998;DHT22;10657;51.276;6.390;2022-10-13T07:21:33;12.60;99.90
20998;DHT22;10657;51.276;6.390;2022-10-13T07:24:01;12.60;99.90
20998;DHT22;10657;51.276;6.390;2022-10-13T07:26:28;12.70;99.90
20998;DHT22;10657;51.276;6.390;2022-10-13T07:28:54;12.80;99.90
20998;DHT22;10657;51.276;6.390;2022-10-13T07:31:21;12.80;99.90
20998;DHT22;10657;51.276;6.390;2022-10-13T07:33:49;12.80;99.90
20998;DHT22;10657;51.276;6.390;2022-10-13T07:36:17;12.90;99.90
20998;DHT22;10657;51.276;6.390;2022-10-13T07:38:44;12.90;99.90
20998;DHT22;10657;51.276;6.390;2022-10-13T07:41:12;12.90;99.90
20998;DHT22;10657;51.276;6.390;2022-10-13T07:43:39;12.90;99.90
20998;DHT22;10657;51.276;6.390;2022-10-13T07:46:05;12.90;99.90
20998;DHT22;10657;51.276;6.390;2022-10-13T07:48:33;12.90;99.90
20998;DHT22;10657;51.276;6.390;2022-10-13T07:51:08;13.00;99.90
20998;DHT22;10657;51.276;6.390;2022-10-13T07:53:35;13.00;99.90
20998;DHT22;10657;51.276;6.390;2022-10-13T07:56:03;13.00;99.90
20998;DHT22;10657;51.276;6.390;2022-10-13T07:58:31;13.00;99.90
20998;DHT22;10657;51.276;6.390;2022-10-13T08:00:59;13.10;99.90
20998;DHT22;10657;51.276;6.390;2022-10-13T08:03:27;13.10;99.90
20998;DHT22;10657;51.276;6.390;2022-10-13T08:05:54;13.10;99.90
20998;DHT22;10657;51.276;6.390;2022-10-13T08:08:21;13.20;99.90
20998;DHT22;10657;51.276;6.390;2022-10-13T08:10:47;13.20;99.90
20998;DHT22;10657;51.276;6.390;2022-10-13T08:13:14;13.30;99.90
20998;DHT22;10657;51.276;6.390;2022-10-13T08:15:42;13.30;99.90
20998;DHT22;10657;51.276;6.390;2022-10-13T08:18:13;13.40;99.90
20998;DHT22;10657;51.276;6.390;2022-10-13T08:20:41;13.40;99.90
20998;DHT22;10657;51.276;6.390;2022-10-13T08:23:10;13.50;99.90
20998;DHT22;10657;51.276;6.390;2022-10-13T08:25:38;13.50;99.90
20998;DHT22;10657;51.276;6.390;2022-10-13T08:28:06;13.60;99.90
20998;DHT22;10657;51.276;6.390;2022-10-13T08:30:36;13.70;99.90
20998;DHT22;10657;51.276;6.390;2022-10-13T08:33:03;13.70;99.90
20998;DHT22;10657;51.276;6.390;2022-10-13T08:35:30;13.80;99.90
20998;DHT22;10657;51.276;6.390;2022-10-13T08:38:00;13.90;99.90
20998;DHT22;10657;51.276;6.390;2022-10-13T08:40:27;13.90;99.90
20998;DHT22;10657;51.276;6.390;2022-10-13T08:42:54;14.00;99.90
20998;DHT22;10657;51.276;6.390;2022-10-13T08:45:28;14.00;99.90
20998;DHT22;10657;51.276;6.390;2022-10-13T08:48:16;14.10;99.90
20998;DHT22;10657;51.276;6.390;2022-10-13T08:50:46;14.20;99.90
20998;DHT22;10657;51.276;6.390;2022-10-13T08:53:27;14.20;99.90
20998;DHT22;10657;51.276;6.390;2022-10-13T08:55:57;14.20;99.90
20998;DHT22;10657;51.276;6.390;2022-10-13T08:58:29;14.20;99.90
20998;DHT22;10657;51.276;6.390;2022-10-13T09:03:53;14.40;99.90
20998;DHT22;10657;51.276;6.390;2022-10-13T09:06:23;14.50;99.90
20998;DHT22;10657;51.276;6.390;2022-10-13T09:08:57;14.50;99.90
20998;DHT22;10657;51.276;6.390;2022-10-13T09:11:33;14.50;99.90
20998;DHT22;10657;51.276;6.390;2022-10-13T09:14:03;14.50;99.90
20998;DHT22;10657;51.276;6.390;2022-10-13T09:16:42;14.60;99.90
20998;DHT22;10657;51.276;6.390;2022-10-13T09:19:30;14.50;99.90
20998;DHT22;10657;51.276;6.390;2022-10-13T09:24:45;14.60;99.90
20998;DHT22;10657;51.276;6.390;2022-10-13T09:27:15;14.60;99.90
20998;DHT22;10657;51.276;6.390;2022-10-13T09:29:43;14.60;99.90
20998;DHT22;10657;51.276;6.390;2022-10-13T09:32:19;14.70;99.90
20998;DHT22;10657;51.276;6.390;2022-10-13T09:34:47;14.70;99.90
20998;DHT22;10657;51.276;6.390;2022-10-13T09:37:22;14.70;99.90
20998;DHT22;10657;51.276;6.390;2022-10-13T09:40:20;14.80;99.90
20998;DHT22;10657;51.276;6.390;2022-10-13T09:42:51;14.80;99.90
20998;DHT22;10657;51.276;6.390;2022-10-13T09:45:20;14.90;99.90
20998;DHT22;10657;51.276;6.390;2022-10-13T09:48:04;14.80;99.90
20998;DHT22;10657;51.276;6.390;2022-10-13T09:50:33;14.90;99.90
20998;DHT22;10657;51.276;6.390;2022-10-13T09:55:47;15.00;99.90
20998;DHT22;10657;51.276;6.390;2022-10-13T09:58:20;15.00;99.90
20998;DHT22;10657;51.276;6.390;2022-10-13T10:00:50;15.10;99.90
20998;DHT22;10657;51.276;6.390;2022-10-13T10:11:40;15.40;99.90
20998;DHT22;10657;51.276;6.390;2022-10-13T10:14:28;15.40;99.90
20998;DHT22;10657;51.276;6.390;2022-10-13T10:22:46;15.50;99.90
20998;DHT22;10657;51.276;6.390;2022-10-13T10:28:16;15.50;99.90
20998;DHT22;10657;51.276;6.390;2022-10-13T10:33:26;15.50;99.90
20998;DHT22;10657;51.276;6.390;2022-10-13T10:36:22;15.40;99.90
20998;DHT22;10657;51.276;6.390;2022-10-13T10:41:41;15.40;99.90
20998;DHT22;10657;51.276;6.390;2022-10-13T10:46:45;15.40;99.90
20998;DHT22;10657;51.276;6.390;2022-10-13T10:49:19;15.40;99.90
20998;DHT22;10657;51.276;6.390;2022-10-13T10:51:46;15.40;99.90
20998;DHT22;10657;51.276;6.390;2022-10-13T10:56:52;15.40;99.90
20998;DHT22;10657;51.276;6.390;2022-10-13T11:04:40;15.20;99.90
20998;DHT22;10657;51.276;6.390;2022-10-13T11:30:51;14.70;99.90
20998;DHT22;10657;51.276;6.390;2022-10-13T11:45:58;14.60;99.90
20998;DHT22;10657;51.276;6.390;2022-10-13T11:51:31;14.80;99.90
20998;DHT22;10657;51.276;6.390;2022-10-13T11:56:54;14.80;99.90
20998;DHT22;10657;51.276;6.390;2022-10-13T12:02:14;14.80;99.90
20998;DHT22;10657;51.276;6.390;2022-10-13T12:04:42;14.90;99.90
20998;DHT22;10657;51.276;6.390;2022-10-13T12:07:14;15.00;99.90
20998;DHT22;10657;51.276;6.390;2022-10-13T12:09:53;15.00;99.90
20998;DHT22;10657;51.276;6.390;2022-10-13T12:12:21;15.10;99.90
20998;DHT22;10657;51.276;6.390;2022-10-13T12:14:53;15.10;99.90
20998;DHT22;10657;51.276;6.390;2022-10-13T12:17:31;15.10;99.90
20998;DHT22;10657;51.276;6.390;2022-10-13T12:20:00;15.10;99.90
20998;DHT22;10657;51.276;6.390;2022-10-13T12:22:27;15.10;99.90
20998;DHT22;10657;51.276;6.390;2022-10-13T12:25:02;15.10;99.90
20998;DHT22;10657;51.276;6.390;2022-10-13T12:30:23;15.10;99.90
20998;DHT22;10657;51.276;6.390;2022-10-13T12:32:53;15.10;99.90
20998;DHT22;10657;51.276;6.390;2022-10-13T12:35:25;15.10;99.90
20998;DHT22;10657;51.276;6.390;2022-10-13T12:37:53;15.10;99.90
20998;DHT22;10657;51.276;6.390;2022-10-13T12:40:21;15.10;99.90
20998;DHT22;10657;51.276;6.390;2022-10-13T12:42:48;15.20;99.90
20998;DHT22;10657;51.276;6.390;2022-10-13T12:45:20;15.20;99.90
20998;DHT22;10657;51.276;6.390;2022-10-13T12:47:49;15.20;99.90
20998;DHT22;10657;51.276;6.390;2022-10-13T12:53:08;15.30;99.90
20998;DHT22;10657;51.276;6.390;2022-10-13T12:55:49;15.30;99.90
20998;DHT22;10657;51.276;6.390;2022-10-13T12:58:23;15.20;99.90
20998;DHT22;10657;51.276;6.390;2022-10-13T13:07:32;15.30;99.90
20998;DHT22;10657;51.276;6.390;2022-10-13T13:12:34;15.30;99.90
20998;DHT22;10657;51.276;6.390;2022-10-13T13:15:20;15.30;99.90
20998;DHT22;10657;51.276;6.390;2022-10-13T13:17:54;15.30;99.90
20998;DHT22;10657;51.276;6.390;2022-10-13T13:20:30;15.30;99.90
20998;DHT22;10657;51.276;6.390;2022-10-13T13:22:58;15.30;99.90
20998;DHT22;10657;51.276;6.390;2022-10-13T13:25:25;15.30;99.90
20998;DHT22;10657;51.276;6.390;2022-10-13T13:27:52;15.30;99.90
20998;DHT22;10657;51.276;6.390;2022-10-13T13:30:21;15.20;99.90
20998;DHT22;10657;51.276;6.390;2022-10-13T13:32:48;15.20;99.90
20998;DHT22;10657;51.276;6.390;2022-10-13T13:35:15;15.20;99.90
20998;DHT22;10657;51.276;6.390;2022-10-13T13:37:45;15.10;99.90
20998;DHT22;10657;51.276;6.390;2022-10-13T13:40:22;15.10;99.90
20998;DHT22;10657;51.276;6.390;2022-10-13T13:42:49;15.10;99.90
20998;DHT22;10657;51.276;6.390;2022-10-13T13:45:18;15.00;99.90
20998;DHT22;10657;51.276;6.390;2022-10-13T13:47:45;15.00;99.90
20998;DHT22;10657;51.276;6.390;2022-10-13T13:50:21;15.00;99.90
20998;DHT22;10657;51.276;6.390;2022-10-13T13:52:48;15.00;99.90
20998;DHT22;10657;51.276;6.390;2022-10-13T13:55:14;15.00;99.90
20998;DHT22;10657;51.276;6.390;2022-10-13T13:57:42;15.10;99.90
20998;DHT22;10657;51.276;6.390;2022-10-13T14:00:13;15.00;99.90
20998;DHT22;10657;51.276;6.390;2022-10-13T14:02:41;15.00;99.90
20998;DHT22;10657;51.276;6.390;2022-10-13T14:05:09;15.00;99.90
20998;DHT22;10657;51.276;6.390;2022-10-13T14:07:37;14.90;99.90
20998;DHT22;10657;51.276;6.390;2022-10-13T14:10:04;14.90;99.90
20998;DHT22;10657;51.276;6.390;2022-10-13T14:12:32;14.90;99.90
20998;DHT22;10657;51.276;6.390;2022-10-13T14:14:58;14.90;99.90
20998;DHT22;10657;51.276;6.390;2022-10-13T14:17:27;14.80;99.90
20998;DHT22;10657;51.276;6.390;2022-10-13T14:19:54;14.90;99.90
20998;DHT22;10657;51.276;6.390;2022-10-13T14:22:21;14.90;99.90
20998;DHT22;10657;51.276;6.390;2022-10-13T14:24:48;14.90;99.90
20998;DHT22;10657;51.276;6.390;2022-10-13T14:27:15;15.00;99.90
20998;DHT22;10657;51.276;6.390;2022-10-13T14:29:41;15.10;99.90
20998;DHT22;10657;51.276;6.390;2022-10-13T14:32:08;15.00;99.90
20998;DHT22;10657;51.276;6.390;2022-10-13T14:34:35;15.00;99.90
20998;DHT22;10657;51.276;6.390;2022-10-13T14:37:01;15.00;99.90
20998;DHT22;10657;51.276;6.390;2022-10-13T14:39:28;15.10;99.90
20998;DHT22;10657;51.276;6.390;2022-10-13T14:41:55;15.00;99.90
20998;DHT22;10657;51.276;6.390;2022-10-13T14:44:21;15.00;99.90
20998;DHT22;10657;51.276;6.390;2022-10-13T14:46:48;15.00;99.90
20998;DHT22;10657;51.276;6.390;2022-10-13T14:49:14;15.00;99.90
20998;DHT22;10657;51.276;6.390;2022-10-13T14:51:41;14.90;99.90
20998;DHT22;10657;51.276;6.390;2022-10-13T14:54:08;14.80;99.90
20998;DHT22;10657;51.276;6.390;2022-10-13T14:56:35;14.90;99.90
20998;DHT22;10657;51.276;6.390;2022-10-13T14:59:04;14.90;99.90
20998;DHT22;10657;51.276;6.390;2022-10-13T15:01:32;14.90;99.90
20998;DHT22;10657;51.276;6.390;2022-10-13T15:04:00;14.90;99.90
20998;DHT22;10657;51.276;6.390;2022-10-13T15:06:26;14.90;99.90
20998;DHT22;10657;51.276;6.390;2022-10-13T15:08:54;14.90;99.90
20998;DHT22;10657;51.276;6.390;2022-10-13T15:11:21;14.90;99.90
20998;DHT22;10657;51.276;6.390;2022-10-13T15:13:48;14.80;99.90
20998;DHT22;10657;51.276;6.390;2022-10-13T15:16:20;14.90;99.90
20998;DHT22;10657;51.276;6.390;2022-10-13T15:18:48;14.80;99.90
20998;DHT22;10657;51.276;6.390;2022-10-13T15:21:15;14.80;99.90
20998;DHT22;10657;51.276;6.390;2022-10-13T15:23:43;14.70;99.90
20998;DHT22;10657;51.276;6.390;2022-10-13T15:26:10;14.80;99.90
20998;DHT22;10657;51.276;6.390;2022-10-13T15:28:43;14.80;99.90
20998;DHT22;10657;51.276;6.390;2022-10-13T15:31:11;14.70;99.90
20998;DHT22;10657;51.276;6.390;2022-10-13T15:33:41;14.50;99.90
20998;DHT22;10657;51.276;6.390;2022-10-13T15:36:09;14.50;99.90
20998;DHT22;10657;51.276;6.390;2022-10-13T15:38:35;14.50;99.90
20998;DHT22;10657;51.276;6.390;2022-10-13T15:41:04;14.40;99.90
20998;DHT22;10657;51.276;6.390;2022-10-13T15:43:31;14.40;99.90
20998;DHT22;10657;51.276;6.390;2022-10-13T15:46:06;14.30;99.90
20998;DHT22;10657;51.276;6.390;2022-10-13T15:48:33;14.30;99.90
20998;DHT22;10657;51.276;6.390;2022-10-13T15:51:00;14.30;99.90
20998;DHT22;10657;51.276;6.390;2022-10-13T15:53:28;14.30;99.90
20998;DHT22;10657;51.276;6.390;2022-10-13T15:55:55;14.20;99.90
20998;DHT22;10657;51.276;6.390;2022-10-13T15:58:21;14.20;99.90
20998;DHT22;10657;51.276;6.390;2022-10-13T16:00:48;14.20;99.90
20998;DHT22;10657;51.276;6.390;2022-10-13T16:03:16;14.20;99.90
20998;DHT22;10657;51.276;6.390;2022-10-13T16:05:44;14.20;99.90
20998;DHT22;10657;51.276;6.390;2022-10-13T16:08:12;14.20;99.90
20998;DHT22;10657;51.276;6.390;2022-10-13T16:10:40;14.10;99.90
20998;DHT22;10657;51.276;6.390;2022-10-13T16:13:08;14.10;99.90
20998;DHT22;10657;51.276;6.390;2022-10-13T16:15:37;14.20;99.90
20998;DHT22;10657;51.276;6.390;2022-10-13T16:18:04;14.10;99.90
20998;DHT22;10657;51.276;6.390;2022-10-13T16:20:31;14.20;99.90
20998;DHT22;10657;51.276;6.390;2022-10-13T16:23:00;14.10;99.90
20998;DHT22;10657;51.276;6.390;2022-10-13T16:25:27;14.10;99.90
20998;DHT22;10657;51.276;6.390;2022-10-13T16:27:55;14.10;99.90
20998;DHT22;10657;51.276;6.390;2022-10-13T16:30:21;14.10;99.90
20998;DHT22;10657;51.276;6.390;2022-10-13T16:32:48;14.00;99.90
20998;DHT22;10657;51.276;6.390;2022-10-13T16:35:15;14.00;99.90
20998;DHT22;10657;51.276;6.390;2022-10-13T16:37:41;14.00;99.90
20998;DHT22;10657;51.276;6.390;2022-10-13T16:40:08;14.00;99.90
20998;DHT22;10657;51.276;6.390;2022-10-13T16:42:35;13.90;99.90
20998;DHT22;10657;51.276;6.390;2022-10-13T16:45:02;13.90;99.90
20998;DHT22;10657;51.276;6.390;2022-10-13T16:47:29;13.90;99.90
20998;DHT22;10657;51.276;6.390;2022-10-13T16:49:55;13.90;99.90
20998;DHT22;10657;51.276;6.390;2022-10-13T16:52:22;13.90;99.90
20998;DHT22;10657;51.276;6.390;2022-10-13T16:54:49;13.90;99.90
20998;DHT22;10657;51.276;6.390;2022-10-13T16:57:15;13.70;99.90
20998;DHT22;10657;51.276;6.390;2022-10-13T16:59:42;13.60;99.90
20998;DHT22;10657;51.276;6.390;2022-10-13T17:02:14;13.80;99.90
20998;DHT22;10657;51.276;6.390;2022-10-13T17:04:41;13.80;99.90
20998;DHT22;10657;51.276;6.390;2022-10-13T17:07:08;13.80;99.90
20998;DHT22;10657;51.276;6.390;2022-10-13T17:09:35;13.80;99.90
20998;DHT22;10657;51.276;6.390;2022-10-13T17:12:02;13.80;99.90
20998;DHT22;10657;51.276;6.390;2022-10-13T17:14:29;13.80;99.90
20998;DHT22;10657;51.276;6.390;2022-10-13T17:16:56;13.70;99.90
20998;DHT22;10657;51.276;6.390;2022-10-13T17:19:23;13.80;99.90
20998;DHT22;10657;51.276;6.390;2022-10-13T17:21:50;13.80;99.90
20998;DHT22;10657;51.276;6.390;2022-10-13T17:24:17;13.70;99.90
20998;DHT22;10657;51.276;6.390;2022-10-13T17:26:43;13.80;99.90
20998;DHT22;10657;51.276;6.390;2022-10-13T17:29:10;13.80;99.90
20998;DHT22;10657;51.276;6.390;2022-10-13T17:31:37;13.80;99.90
20998;DHT22;10657;51.276;6.390;2022-10-13T17:34:03;13.80;99.90
20998;DHT22;10657;51.276;6.390;2022-10-13T17:36:31;13.80;99.90
20998;DHT22;10657;51.276;6.390;2022-10-13T17:39:07;13.80;99.90